TAF KEUG
KEUG 081736Z 0818/0918 21007KT P6SM SCT015 BKN040 OVC060 FM082100 27007KT P6SM VCSH SCT020 BKN035 OVC060 FM090800 22004KT 6SM BR SCT010 BKN050 FM091200 21003KT 6SM BR SCT008 BKN015 OVC050=
METAR KEUG
WC KEUG
WS KEUG
WV KEUG